sensor_id;sensor_type;location;lat;lon;timestamp;P1;durP1;ratioP1;P2;durP2;ratioP2
18574;SDS011;9417;16.484;102.872;2022-12-20T00:01:05;66.93;;;42.75;;
18574;SDS011;9417;16.484;102.872;2022-12-20T00:03:13;66.40;;;41.47;;
18574;SDS011;9417;16.484;102.872;2022-12-20T00:05:21;71.95;;;44.28;;
18574;SDS011;9417;16.484;102.872;2022-12-20T00:07:28;67.15;;;41.53;;
18574;SDS011;9417;16.484;102.872;2022-12-20T00:09:34;64.63;;;40.70;;
18574;SDS011;9417;16.484;102.872;2022-12-20T00:11:42;69.68;;;42.67;;
18574;SDS011;9417;16.484;102.872;2022-12-20T00:13:49;61.35;;;40.72;;
18574;SDS011;9417;16.484;102.872;2022-12-20T00:16:04;79.22;;;44.58;;
18574;SDS011;9417;16.484;102.872;2022-12-20T00:18:11;75.90;;;46.15;;
18574;SDS011;9417;16.484;102.872;2022-12-20T00:20:18;70.72;;;44.88;;
18574;SDS011;9417;16.484;102.872;2022-12-20T00:22:26;63.65;;;40.65;;
18574;SDS011;9417;16.484;102.872;2022-12-20T00:24:33;64.63;;;39.55;;
18574;SDS011;9417;16.484;102.872;2022-12-20T00:26:40;62.97;;;40.28;;
18574;SDS011;9417;16.484;102.872;2022-12-20T00:28:47;66.60;;;39.95;;
18574;SDS011;9417;16.484;102.872;2022-12-20T00:30:54;66.43;;;41.03;;
18574;SDS011;9417;16.484;102.872;2022-12-20T00:33:03;74.97;;;44.08;;
18574;SDS011;9417;16.484;102.872;2022-12-20T00:35:10;80.03;;;48.47;;
18574;SDS011;9417;16.484;102.872;2022-12-20T00:37:17;99.72;;;52.95;;
18574;SDS011;9417;16.484;102.872;2022-12-20T00:39:24;145.45;;;73.80;;
18574;SDS011;9417;16.484;102.872;2022-12-20T00:41:31;154.57;;;81.95;;
18574;SDS011;9417;16.484;102.872;2022-12-20T00:43:39;153.25;;;82.70;;
18574;SDS011;9417;16.484;102.872;2022-12-20T00:45:46;122.88;;;64.07;;
18574;SDS011;9417;16.484;102.872;2022-12-20T00:47:53;83.22;;;47.92;;
18574;SDS011;9417;16.484;102.872;2022-12-20T00:50:02;70.07;;;43.78;;
18574;SDS011;9417;16.484;102.872;2022-12-20T00:52:09;58.63;;;35.17;;
18574;SDS011;9417;16.484;102.872;2022-12-20T00:54:16;48.53;;;29.40;;
18574;SDS011;9417;16.484;102.872;2022-12-20T00:56:23;47.67;;;30.05;;
18574;SDS011;9417;16.484;102.872;2022-12-20T00:58:31;56.60;;;31.27;;
18574;SDS011;9417;16.484;102.872;2022-12-20T01:00:39;49.60;;;30.83;;
18574;SDS011;9417;16.484;102.872;2022-12-20T01:02:51;52.97;;;31.20;;
18574;SDS011;9417;16.484;102.872;2022-12-20T01:05:01;43.42;;;29.17;;
18574;SDS011;9417;16.484;102.872;2022-12-20T01:07:08;51.35;;;29.65;;
18574;SDS011;9417;16.484;102.872;2022-12-20T01:09:15;53.35;;;28.77;;
18574;SDS011;9417;16.484;102.872;2022-12-20T01:11:23;45.05;;;26.50;;
18574;SDS011;9417;16.484;102.872;2022-12-20T01:13:32;39.58;;;24.55;;
18574;SDS011;9417;16.484;102.872;2022-12-20T01:15:40;36.83;;;23.00;;
18574;SDS011;9417;16.484;102.872;2022-12-20T01:17:47;37.20;;;21.73;;
18574;SDS011;9417;16.484;102.872;2022-12-20T01:19:54;33.42;;;21.10;;
18574;SDS011;9417;16.484;102.872;2022-12-20T01:22:02;34.33;;;20.90;;
18574;SDS011;9417;16.484;102.872;2022-12-20T01:24:09;32.13;;;20.95;;
18574;SDS011;9417;16.484;102.872;2022-12-20T01:26:18;36.00;;;20.75;;
18574;SDS011;9417;16.484;102.872;2022-12-20T01:28:26;33.72;;;20.13;;
18574;SDS011;9417;16.484;102.872;2022-12-20T01:30:34;34.08;;;20.05;;
18574;SDS011;9417;16.484;102.872;2022-12-20T01:32:44;33.55;;;20.52;;
18574;SDS011;9417;16.484;102.872;2022-12-20T01:34:52;33.38;;;20.25;;
18574;SDS011;9417;16.484;102.872;2022-12-20T01:36:59;36.10;;;20.98;;
18574;SDS011;9417;16.484;102.872;2022-12-20T01:39:08;30.45;;;18.63;;
18574;SDS011;9417;16.484;102.872;2022-12-20T01:41:18;26.80;;;14.63;;
18574;SDS011;9417;16.484;102.872;2022-12-20T01:43:43;145.38;;;74.35;;
18574;SDS011;9417;16.484;102.872;2022-12-20T01:45:52;52.72;;;31.83;;
18574;SDS011;9417;16.484;102.872;2022-12-20T01:48:00;26.17;;;17.02;;
18574;SDS011;9417;16.484;102.872;2022-12-20T01:50:07;27.42;;;14.93;;
18574;SDS011;9417;16.484;102.872;2022-12-20T01:52:16;33.45;;;18.15;;
18574;SDS011;9417;16.484;102.872;2022-12-20T01:54:28;33.08;;;17.95;;
18574;SDS011;9417;16.484;102.872;2022-12-20T01:56:39;26.73;;;14.65;;
18574;SDS011;9417;16.484;102.872;2022-12-20T01:58:51;25.70;;;15.27;;
18574;SDS011;9417;16.484;102.872;2022-12-20T02:00:59;28.15;;;15.45;;
18574;SDS011;9417;16.484;102.872;2022-12-20T02:03:07;31.80;;;17.35;;
18574;SDS011;9417;16.484;102.872;2022-12-20T02:05:17;28.25;;;16.45;;
18574;SDS011;9417;16.484;102.872;2022-12-20T02:07:28;25.90;;;15.80;;
18574;SDS011;9417;16.484;102.872;2022-12-20T02:09:38;41.72;;;22.15;;
18574;SDS011;9417;16.484;102.872;2022-12-20T02:11:51;26.00;;;16.52;;
18574;SDS011;9417;16.484;102.872;2022-12-20T02:14:11;32.22;;;17.58;;
18574;SDS011;9417;16.484;102.872;2022-12-20T02:16:25;27.30;;;17.35;;
18574;SDS011;9417;16.484;102.872;2022-12-20T02:18:35;30.27;;;18.15;;
18574;SDS011;9417;16.484;102.872;2022-12-20T02:23:30;69.13;;;35.28;;
18574;SDS011;9417;16.484;102.872;2022-12-20T02:25:58;33.55;;;18.33;;
18574;SDS011;9417;16.484;102.872;2022-12-20T02:28:19;29.27;;;17.58;;
18574;SDS011;9417;16.484;102.872;2022-12-20T02:30:46;35.20;;;20.23;;
18574;SDS011;9417;16.484;102.872;2022-12-20T02:32:59;33.95;;;18.75;;
18574;SDS011;9417;16.484;102.872;2022-12-20T02:35:11;28.60;;;18.38;;
18574;SDS011;9417;16.484;102.872;2022-12-20T02:37:19;28.35;;;16.92;;
18574;SDS011;9417;16.484;102.872;2022-12-20T02:39:27;37.92;;;18.58;;
18574;SDS011;9417;16.484;102.872;2022-12-20T02:41:37;32.17;;;17.58;;
18574;SDS011;9417;16.484;102.872;2022-12-20T02:43:48;25.40;;;14.15;;
18574;SDS011;9417;16.484;102.872;2022-12-20T02:46:18;28.85;;;14.77;;
18574;SDS011;9417;16.484;102.872;2022-12-20T02:48:27;32.10;;;14.02;;
18574;SDS011;9417;16.484;102.872;2022-12-20T02:50:37;21.95;;;13.00;;
18574;SDS011;9417;16.484;102.872;2022-12-20T02:52:49;20.70;;;11.93;;
18574;SDS011;9417;16.484;102.872;2022-12-20T02:54:56;23.50;;;11.25;;
18574;SDS011;9417;16.484;102.872;2022-12-20T02:57:08;16.25;;;11.35;;
18574;SDS011;9417;16.484;102.872;2022-12-20T02:59:21;21.77;;;11.48;;
18574;SDS011;9417;16.484;102.872;2022-12-20T03:01:32;20.83;;;11.68;;
18574;SDS011;9417;16.484;102.872;2022-12-20T03:03:43;21.52;;;12.43;;
18574;SDS011;9417;16.484;102.872;2022-12-20T03:05:51;17.80;;;11.35;;
18574;SDS011;9417;16.484;102.872;2022-12-20T03:07:59;18.55;;;10.95;;
18574;SDS011;9417;16.484;102.872;2022-12-20T03:10:07;18.02;;;10.75;;
18574;SDS011;9417;16.484;102.872;2022-12-20T03:12:15;20.75;;;11.23;;
18574;SDS011;9417;16.484;102.872;2022-12-20T03:14:22;15.95;;;11.02;;
18574;SDS011;9417;16.484;102.872;2022-12-20T03:16:33;19.30;;;11.63;;
18574;SDS011;9417;16.484;102.872;2022-12-20T03:18:41;17.08;;;10.23;;
18574;SDS011;9417;16.484;102.872;2022-12-20T03:20:49;17.55;;;10.68;;
18574;SDS011;9417;16.484;102.872;2022-12-20T03:22:56;15.75;;;10.00;;
18574;SDS011;9417;16.484;102.872;2022-12-20T03:25:03;17.70;;;10.15;;
18574;SDS011;9417;16.484;102.872;2022-12-20T03:27:11;25.27;;;10.80;;
18574;SDS011;9417;16.484;102.872;2022-12-20T03:29:19;17.95;;;10.43;;
18574;SDS011;9417;16.484;102.872;2022-12-20T03:31:26;16.23;;;10.00;;
18574;SDS011;9417;16.484;102.872;2022-12-20T03:33:35;15.02;;;9.75;;
18574;SDS011;9417;16.484;102.872;2022-12-20T03:35:42;17.67;;;10.07;;
18574;SDS011;9417;16.484;102.872;2022-12-20T03:37:52;14.93;;;10.23;;
18574;SDS011;9417;16.484;102.872;2022-12-20T03:39:59;14.32;;;9.82;;
18574;SDS011;9417;16.484;102.872;2022-12-20T03:42:07;15.07;;;8.75;;
18574;SDS011;9417;16.484;102.872;2022-12-20T03:44:14;13.35;;;8.95;;
18574;SDS011;9417;16.484;102.872;2022-12-20T03:46:23;16.90;;;9.10;;
18574;SDS011;9417;16.484;102.872;2022-12-20T03:48:30;15.40;;;9.00;;
18574;SDS011;9417;16.484;102.872;2022-12-20T03:50:40;14.23;;;8.80;;
18574;SDS011;9417;16.484;102.872;2022-12-20T03:52:47;17.38;;;8.23;;
18574;SDS011;9417;16.484;102.872;2022-12-20T03:54:54;12.88;;;7.78;;
18574;SDS011;9417;16.484;102.872;2022-12-20T03:57:10;16.30;;;8.73;;
18574;SDS011;9417;16.484;102.872;2022-12-20T03:59:19;13.77;;;8.95;;
18574;SDS011;9417;16.484;102.872;2022-12-20T04:01:27;11.05;;;7.63;;
18574;SDS011;9417;16.484;102.872;2022-12-20T04:03:35;17.27;;;8.48;;
18574;SDS011;9417;16.484;102.872;2022-12-20T04:05:44;13.98;;;7.80;;
18574;SDS011;9417;16.484;102.872;2022-12-20T04:07:52;12.00;;;7.97;;
18574;SDS011;9417;16.484;102.872;2022-12-20T04:09:59;12.00;;;7.35;;
18574;SDS011;9417;16.484;102.872;2022-12-20T04:12:07;11.30;;;7.28;;
18574;SDS011;9417;16.484;102.872;2022-12-20T04:14:14;11.40;;;7.68;;
18574;SDS011;9417;16.484;102.872;2022-12-20T04:16:21;12.63;;;7.97;;
18574;SDS011;9417;16.484;102.872;2022-12-20T04:18:30;14.98;;;8.00;;
18574;SDS011;9417;16.484;102.872;2022-12-20T04:20:38;16.00;;;8.60;;
18574;SDS011;9417;16.484;102.872;2022-12-20T04:22:56;11.43;;;7.45;;
18574;SDS011;9417;16.484;102.872;2022-12-20T04:25:04;10.77;;;6.60;;
18574;SDS011;9417;16.484;102.872;2022-12-20T04:27:13;10.05;;;6.55;;
18574;SDS011;9417;16.484;102.872;2022-12-20T04:29:21;10.30;;;6.78;;
18574;SDS011;9417;16.484;102.872;2022-12-20T04:31:28;12.25;;;7.35;;
18574;SDS011;9417;16.484;102.872;2022-12-20T04:33:35;11.95;;;6.72;;
18574;SDS011;9417;16.484;102.872;2022-12-20T04:35:43;13.75;;;6.72;;
18574;SDS011;9417;16.484;102.872;2022-12-20T04:37:50;11.02;;;6.70;;
18574;SDS011;9417;16.484;102.872;2022-12-20T04:39:59;11.45;;;7.05;;
18574;SDS011;9417;16.484;102.872;2022-12-20T04:42:16;14.55;;;7.43;;
18574;SDS011;9417;16.484;102.872;2022-12-20T04:44:25;12.27;;;7.47;;
18574;SDS011;9417;16.484;102.872;2022-12-20T04:46:32;13.18;;;7.25;;
18574;SDS011;9417;16.484;102.872;2022-12-20T04:48:43;13.75;;;8.30;;
18574;SDS011;9417;16.484;102.872;2022-12-20T04:51:02;12.02;;;7.97;;
18574;SDS011;9417;16.484;102.872;2022-12-20T04:53:10;11.20;;;8.52;;
18574;SDS011;9417;16.484;102.872;2022-12-20T04:55:37;11.57;;;7.60;;
18574;SDS011;9417;16.484;102.872;2022-12-20T04:57:44;9.82;;;6.90;;
18574;SDS011;9417;16.484;102.872;2022-12-20T04:59:51;11.18;;;6.80;;
18574;SDS011;9417;16.484;102.872;2022-12-20T05:01:58;10.35;;;7.32;;
18574;SDS011;9417;16.484;102.872;2022-12-20T05:04:25;12.15;;;7.53;;
18574;SDS011;9417;16.484;102.872;2022-12-20T05:06:40;11.70;;;7.30;;
18574;SDS011;9417;16.484;102.872;2022-12-20T05:08:48;10.57;;;7.20;;
18574;SDS011;9417;16.484;102.872;2022-12-20T05:10:57;11.18;;;7.70;;
18574;SDS011;9417;16.484;102.872;2022-12-20T05:13:06;13.10;;;7.97;;
18574;SDS011;9417;16.484;102.872;2022-12-20T05:15:16;12.02;;;8.25;;
18574;SDS011;9417;16.484;102.872;2022-12-20T05:17:23;12.27;;;8.45;;
18574;SDS011;9417;16.484;102.872;2022-12-20T05:19:30;12.82;;;7.53;;
18574;SDS011;9417;16.484;102.872;2022-12-20T05:21:37;11.63;;;7.72;;
18574;SDS011;9417;16.484;102.872;2022-12-20T05:24:02;13.48;;;8.40;;
18574;SDS011;9417;16.484;102.872;2022-12-20T05:26:41;12.48;;;7.90;;
18574;SDS011;9417;16.484;102.872;2022-12-20T05:28:51;11.27;;;7.82;;
18574;SDS011;9417;16.484;102.872;2022-12-20T05:31:00;11.75;;;8.32;;
18574;SDS011;9417;16.484;102.872;2022-12-20T05:33:09;14.93;;;8.10;;
18574;SDS011;9417;16.484;102.872;2022-12-20T05:35:18;11.10;;;8.32;;
18574;SDS011;9417;16.484;102.872;2022-12-20T05:37:32;13.90;;;8.18;;
18574;SDS011;9417;16.484;102.872;2022-12-20T05:39:47;14.50;;;8.70;;
18574;SDS011;9417;16.484;102.872;2022-12-20T05:41:58;13.25;;;8.05;;
18574;SDS011;9417;16.484;102.872;2022-12-20T05:44:05;11.20;;;7.65;;
18574;SDS011;9417;16.484;102.872;2022-12-20T05:46:16;17.85;;;8.32;;
18574;SDS011;9417;16.484;102.872;2022-12-20T05:48:31;11.35;;;7.05;;
18574;SDS011;9417;16.484;102.872;2022-12-20T05:50:39;15.27;;;8.82;;
18574;SDS011;9417;16.484;102.872;2022-12-20T05:53:06;12.20;;;7.78;;
18574;SDS011;9417;16.484;102.872;2022-12-20T05:55:20;13.98;;;7.90;;
18574;SDS011;9417;16.484;102.872;2022-12-20T05:57:29;18.65;;;8.15;;
18574;SDS011;9417;16.484;102.872;2022-12-20T05:59:36;16.70;;;7.68;;
18574;SDS011;9417;16.484;102.872;2022-12-20T06:01:50;13.02;;;7.97;;
18574;SDS011;9417;16.484;102.872;2022-12-20T06:03:58;20.70;;;8.38;;
18574;SDS011;9417;16.484;102.872;2022-12-20T06:06:06;19.77;;;8.27;;
18574;SDS011;9417;16.484;102.872;2022-12-20T06:08:20;13.57;;;8.27;;
18574;SDS011;9417;16.484;102.872;2022-12-20T06:10:28;14.63;;;7.45;;
18574;SDS011;9417;16.484;102.872;2022-12-20T06:12:39;13.00;;;7.90;;
18574;SDS011;9417;16.484;102.872;2022-12-20T06:14:46;16.92;;;8.68;;
18574;SDS011;9417;16.484;102.872;2022-12-20T06:16:54;11.00;;;7.75;;
18574;SDS011;9417;16.484;102.872;2022-12-20T06:19:01;10.23;;;8.32;;
18574;SDS011;9417;16.484;102.872;2022-12-20T06:21:08;16.75;;;8.23;;
18574;SDS011;9417;16.484;102.872;2022-12-20T06:23:15;12.70;;;7.63;;
18574;SDS011;9417;16.484;102.872;2022-12-20T06:25:32;13.23;;;8.18;;
18574;SDS011;9417;16.484;102.872;2022-12-20T06:27:41;11.65;;;8.00;;
18574;SDS011;9417;16.484;102.872;2022-12-20T06:29:50;14.13;;;8.53;;
18574;SDS011;9417;16.484;102.872;2022-12-20T06:32:00;11.80;;;7.90;;
18574;SDS011;9417;16.484;102.872;2022-12-20T06:34:09;16.35;;;8.48;;
18574;SDS011;9417;16.484;102.872;2022-12-20T06:36:17;13.20;;;7.95;;
18574;SDS011;9417;16.484;102.872;2022-12-20T06:38:25;14.98;;;8.45;;
18574;SDS011;9417;16.484;102.872;2022-12-20T06:40:32;16.13;;;8.65;;
18574;SDS011;9417;16.484;102.872;2022-12-20T06:42:41;12.90;;;8.70;;
18574;SDS011;9417;16.484;102.872;2022-12-20T06:44:49;14.68;;;11.10;;
18574;SDS011;9417;16.484;102.872;2022-12-20T06:46:56;19.15;;;11.68;;
18574;SDS011;9417;16.484;102.872;2022-12-20T06:49:03;16.88;;;11.00;;
18574;SDS011;9417;16.484;102.872;2022-12-20T06:51:11;14.45;;;8.90;;
18574;SDS011;9417;16.484;102.872;2022-12-20T06:53:18;15.68;;;9.38;;
18574;SDS011;9417;16.484;102.872;2022-12-20T06:55:25;12.40;;;8.23;;
18574;SDS011;9417;16.484;102.872;2022-12-20T06:57:32;13.90;;;8.50;;
18574;SDS011;9417;16.484;102.872;2022-12-20T06:59:40;12.90;;;8.32;;
18574;SDS011;9417;16.484;102.872;2022-12-20T07:01:47;11.70;;;8.35;;
18574;SDS011;9417;16.484;102.872;2022-12-20T07:03:55;15.60;;;9.07;;
18574;SDS011;9417;16.484;102.872;2022-12-20T07:06:02;14.05;;;8.57;;
18574;SDS011;9417;16.484;102.872;2022-12-20T07:08:09;14.48;;;7.85;;
18574;SDS011;9417;16.484;102.872;2022-12-20T07:10:16;11.48;;;8.00;;
18574;SDS011;9417;16.484;102.872;2022-12-20T07:12:24;14.57;;;7.22;;
18574;SDS011;9417;16.484;102.872;2022-12-20T07:14:31;11.35;;;7.97;;
18574;SDS011;9417;16.484;102.872;2022-12-20T07:16:40;16.00;;;8.77;;
18574;SDS011;9417;16.484;102.872;2022-12-20T07:18:49;13.40;;;8.60;;
18574;SDS011;9417;16.484;102.872;2022-12-20T07:20:58;13.30;;;8.90;;
18574;SDS011;9417;16.484;102.872;2022-12-20T07:23:05;16.38;;;8.68;;
18574;SDS011;9417;16.484;102.872;2022-12-20T07:25:12;18.25;;;7.97;;
18574;SDS011;9417;16.484;102.872;2022-12-20T07:27:20;11.70;;;8.30;;
18574;SDS011;9417;16.484;102.872;2022-12-20T07:29:27;15.50;;;7.63;;
18574;SDS011;9417;16.484;102.872;2022-12-20T07:31:34;15.65;;;8.60;;
18574;SDS011;9417;16.484;102.872;2022-12-20T07:33:43;18.55;;;9.10;;
18574;SDS011;9417;16.484;102.872;2022-12-20T07:35:50;18.88;;;9.10;;
18574;SDS011;9417;16.484;102.872;2022-12-20T07:38:04;15.40;;;8.68;;
18574;SDS011;9417;16.484;102.872;2022-12-20T07:40:11;14.20;;;7.75;;
18574;SDS011;9417;16.484;102.872;2022-12-20T07:42:18;13.00;;;8.57;;
18574;SDS011;9417;16.484;102.872;2022-12-20T07:44:37;11.02;;;7.78;;
18574;SDS011;9417;16.484;102.872;2022-12-20T07:46:45;13.10;;;8.30;;
18574;SDS011;9417;16.484;102.872;2022-12-20T07:48:53;13.80;;;7.65;;
18574;SDS011;9417;16.484;102.872;2022-12-20T07:51:02;13.73;;;7.82;;
18574;SDS011;9417;16.484;102.872;2022-12-20T07:53:13;15.20;;;8.88;;
18574;SDS011;9417;16.484;102.872;2022-12-20T07:55:20;13.70;;;8.75;;
18574;SDS011;9417;16.484;102.872;2022-12-20T07:57:28;13.40;;;8.25;;
18574;SDS011;9417;16.484;102.872;2022-12-20T07:59:41;13.90;;;7.90;;
18574;SDS011;9417;16.484;102.872;2022-12-20T08:01:50;13.48;;;8.07;;
18574;SDS011;9417;16.484;102.872;2022-12-20T08:04:07;13.00;;;7.65;;
18574;SDS011;9417;16.484;102.872;2022-12-20T08:06:17;17.33;;;8.40;;
18574;SDS011;9417;16.484;102.872;2022-12-20T08:08:24;14.00;;;8.18;;
18574;SDS011;9417;16.484;102.872;2022-12-20T08:10:32;15.55;;;8.80;;
18574;SDS011;9417;16.484;102.872;2022-12-20T08:12:39;18.52;;;9.45;;
18574;SDS011;9417;16.484;102.872;2022-12-20T08:14:48;16.80;;;10.98;;
18574;SDS011;9417;16.484;102.872;2022-12-20T08:16:58;17.52;;;8.85;;
18574;SDS011;9417;16.484;102.872;2022-12-20T08:19:07;18.38;;;7.80;;
18574;SDS011;9417;16.484;102.872;2022-12-20T08:21:14;10.38;;;7.10;;
18574;SDS011;9417;16.484;102.872;2022-12-20T08:23:22;16.90;;;7.50;;
18574;SDS011;9417;16.484;102.872;2022-12-20T08:25:29;21.63;;;11.30;;
18574;SDS011;9417;16.484;102.872;2022-12-20T08:27:43;17.65;;;11.07;;
18574;SDS011;9417;16.484;102.872;2022-12-20T08:29:50;17.08;;;9.88;;
18574;SDS011;9417;16.484;102.872;2022-12-20T08:31:57;17.40;;;12.02;;
18574;SDS011;9417;16.484;102.872;2022-12-20T08:34:04;32.08;;;22.55;;
18574;SDS011;9417;16.484;102.872;2022-12-20T08:36:13;34.80;;;21.00;;
18574;SDS011;9417;16.484;102.872;2022-12-20T08:38:20;21.13;;;14.40;;
18574;SDS011;9417;16.484;102.872;2022-12-20T08:40:27;12.00;;;8.65;;
18574;SDS011;9417;16.484;102.872;2022-12-20T08:42:34;15.13;;;8.02;;
18574;SDS011;9417;16.484;102.872;2022-12-20T08:44:41;20.83;;;14.75;;
18574;SDS011;9417;16.484;102.872;2022-12-20T08:46:48;36.58;;;26.15;;
18574;SDS011;9417;16.484;102.872;2022-12-20T08:48:56;18.23;;;11.38;;
18574;SDS011;9417;16.484;102.872;2022-12-20T08:51:06;13.82;;;7.90;;
18574;SDS011;9417;16.484;102.872;2022-12-20T08:53:14;15.90;;;9.73;;
18574;SDS011;9417;16.484;102.872;2022-12-20T08:55:21;16.45;;;9.48;;
18574;SDS011;9417;16.484;102.872;2022-12-20T08:57:31;17.92;;;10.23;;
18574;SDS011;9417;16.484;102.872;2022-12-20T08:59:38;14.90;;;9.75;;
18574;SDS011;9417;16.484;102.872;2022-12-20T09:01:45;15.80;;;9.40;;
18574;SDS011;9417;16.484;102.872;2022-12-20T09:03:53;20.95;;;9.48;;
18574;SDS011;9417;16.484;102.872;2022-12-20T09:06:00;16.50;;;9.18;;
18574;SDS011;9417;16.484;102.872;2022-12-20T09:08:10;15.45;;;8.77;;
18574;SDS011;9417;16.484;102.872;2022-12-20T09:10:18;18.25;;;9.68;;
18574;SDS011;9417;16.484;102.872;2022-12-20T09:12:25;12.48;;;9.65;;
18574;SDS011;9417;16.484;102.872;2022-12-20T09:14:32;16.45;;;9.20;;
18574;SDS011;9417;16.484;102.872;2022-12-20T09:16:39;17.40;;;9.48;;
18574;SDS011;9417;16.484;102.872;2022-12-20T09:18:47;13.88;;;8.77;;
18574;SDS011;9417;16.484;102.872;2022-12-20T09:21:01;15.18;;;8.40;;
18574;SDS011;9417;16.484;102.872;2022-12-20T09:23:11;16.83;;;8.68;;
18574;SDS011;9417;16.484;102.872;2022-12-20T09:25:18;12.82;;;8.60;;
18574;SDS011;9417;16.484;102.872;2022-12-20T09:27:25;17.90;;;9.05;;
18574;SDS011;9417;16.484;102.872;2022-12-20T09:29:32;17.20;;;11.50;;
18574;SDS011;9417;16.484;102.872;2022-12-20T09:31:39;15.50;;;9.00;;
18574;SDS011;9417;16.484;102.872;2022-12-20T09:33:46;15.27;;;8.57;;
18574;SDS011;9417;16.484;102.872;2022-12-20T09:35:54;20.20;;;9.13;;
18574;SDS011;9417;16.484;102.872;2022-12-20T09:38:01;16.27;;;10.23;;
18574;SDS011;9417;16.484;102.872;2022-12-20T09:40:13;19.02;;;10.00;;
18574;SDS011;9417;16.484;102.872;2022-12-20T09:42:25;15.68;;;10.02;;
18574;SDS011;9417;16.484;102.872;2022-12-20T09:44:35;15.75;;;10.75;;
18574;SDS011;9417;16.484;102.872;2022-12-20T09:46:46;16.42;;;10.55;;
18574;SDS011;9417;16.484;102.872;2022-12-20T09:48:57;19.55;;;11.35;;
18574;SDS011;9417;16.484;102.872;2022-12-20T09:51:06;16.92;;;10.07;;
18574;SDS011;9417;16.484;102.872;2022-12-20T09:53:23;17.25;;;10.35;;
18574;SDS011;9417;16.484;102.872;2022-12-20T09:55:42;16.45;;;10.05;;
18574;SDS011;9417;16.484;102.872;2022-12-20T09:57:58;20.63;;;10.52;;
18574;SDS011;9417;16.484;102.872;2022-12-20T10:00:14;24.70;;;11.45;;
18574;SDS011;9417;16.484;102.872;2022-12-20T10:02:23;20.98;;;11.80;;
18574;SDS011;9417;16.484;102.872;2022-12-20T10:04:51;20.58;;;12.07;;
18574;SDS011;9417;16.484;102.872;2022-12-20T10:07:03;18.85;;;11.55;;
18574;SDS011;9417;16.484;102.872;2022-12-20T10:09:29;20.95;;;11.18;;
18574;SDS011;9417;16.484;102.872;2022-12-20T10:11:59;18.75;;;11.60;;
18574;SDS011;9417;16.484;102.872;2022-12-20T10:14:15;30.38;;;21.38;;
18574;SDS011;9417;16.484;102.872;2022-12-20T10:16:37;32.90;;;23.00;;
18574;SDS011;9417;16.484;102.872;2022-12-20T10:18:49;29.05;;;20.63;;
18574;SDS011;9417;16.484;102.872;2022-12-20T10:21:04;35.05;;;20.98;;
18574;SDS011;9417;16.484;102.872;2022-12-20T10:23:17;33.63;;;19.80;;
18574;SDS011;9417;16.484;102.872;2022-12-20T10:25:35;29.65;;;17.60;;
18574;SDS011;9417;16.484;102.872;2022-12-20T10:27:45;26.30;;;14.23;;
18574;SDS011;9417;16.484;102.872;2022-12-20T10:29:53;23.00;;;12.73;;
18574;SDS011;9417;16.484;102.872;2022-12-20T10:32:00;19.40;;;11.60;;
18574;SDS011;9417;16.484;102.872;2022-12-20T10:34:15;19.63;;;11.63;;
18574;SDS011;9417;16.484;102.872;2022-12-20T10:36:23;18.48;;;11.75;;
18574;SDS011;9417;16.484;102.872;2022-12-20T10:38:33;19.20;;;11.73;;
18574;SDS011;9417;16.484;102.872;2022-12-20T10:40:58;18.35;;;11.25;;
18574;SDS011;9417;16.484;102.872;2022-12-20T10:43:27;16.08;;;11.05;;
18574;SDS011;9417;16.484;102.872;2022-12-20T10:45:41;19.55;;;12.15;;
18574;SDS011;9417;16.484;102.872;2022-12-20T10:47:50;20.35;;;11.95;;
18574;SDS011;9417;16.484;102.872;2022-12-20T10:50:13;19.20;;;12.48;;
18574;SDS011;9417;16.484;102.872;2022-12-20T10:52:20;21.55;;;12.60;;
18574;SDS011;9417;16.484;102.872;2022-12-20T10:54:32;21.00;;;12.35;;
18574;SDS011;9417;16.484;102.872;2022-12-20T10:58:54;20.02;;;13.10;;
18574;SDS011;9417;16.484;102.872;2022-12-20T11:01:03;24.27;;;14.45;;
18574;SDS011;9417;16.484;102.872;2022-12-20T11:03:17;26.23;;;13.10;;
18574;SDS011;9417;16.484;102.872;2022-12-20T11:05:26;20.52;;;12.25;;
18574;SDS011;9417;16.484;102.872;2022-12-20T11:07:33;21.33;;;13.63;;
18574;SDS011;9417;16.484;102.872;2022-12-20T11:09:40;25.73;;;14.77;;
18574;SDS011;9417;16.484;102.872;2022-12-20T11:12:03;20.95;;;14.75;;
18574;SDS011;9417;16.484;102.872;2022-12-20T11:14:14;25.50;;;15.85;;
18574;SDS011;9417;16.484;102.872;2022-12-20T11:16:27;28.45;;;17.67;;
18574;SDS011;9417;16.484;102.872;2022-12-20T11:18:42;31.85;;;17.70;;
18574;SDS011;9417;16.484;102.872;2022-12-20T11:20:59;33.35;;;20.30;;
18574;SDS011;9417;16.484;102.872;2022-12-20T11:23:22;45.53;;;24.40;;
18574;SDS011;9417;16.484;102.872;2022-12-20T11:25:45;55.00;;;27.23;;
18574;SDS011;9417;16.484;102.872;2022-12-20T11:28:09;54.72;;;29.20;;
18574;SDS011;9417;16.484;102.872;2022-12-20T11:30:28;51.13;;;27.85;;
18574;SDS011;9417;16.484;102.872;2022-12-20T11:32:46;52.58;;;28.60;;
18574;SDS011;9417;16.484;102.872;2022-12-20T11:35:13;59.10;;;31.85;;
18574;SDS011;9417;16.484;102.872;2022-12-20T11:37:24;65.30;;;34.47;;
18574;SDS011;9417;16.484;102.872;2022-12-20T11:39:33;59.30;;;31.08;;
18574;SDS011;9417;16.484;102.872;2022-12-20T11:41:49;59.30;;;31.50;;
18574;SDS011;9417;16.484;102.872;2022-12-20T11:44:08;59.75;;;34.08;;
18574;SDS011;9417;16.484;102.872;2022-12-20T11:46:32;68.25;;;35.40;;
18574;SDS011;9417;16.484;102.872;2022-12-20T11:48:51;65.32;;;34.90;;
18574;SDS011;9417;16.484;102.872;2022-12-20T11:51:09;67.22;;;35.38;;
18574;SDS011;9417;16.484;102.872;2022-12-20T11:53:31;64.55;;;35.45;;
18574;SDS011;9417;16.484;102.872;2022-12-20T11:55:41;64.53;;;33.17;;
18574;SDS011;9417;16.484;102.872;2022-12-20T11:57:53;62.08;;;31.67;;
18574;SDS011;9417;16.484;102.872;2022-12-20T12:00:21;62.58;;;31.83;;
18574;SDS011;9417;16.484;102.872;2022-12-20T12:02:32;57.17;;;32.00;;
18574;SDS011;9417;16.484;102.872;2022-12-20T12:04:43;60.20;;;32.22;;
18574;SDS011;9417;16.484;102.872;2022-12-20T12:06:56;58.65;;;29.90;;
18574;SDS011;9417;16.484;102.872;2022-12-20T12:09:10;61.08;;;32.50;;
18574;SDS011;9417;16.484;102.872;2022-12-20T12:11:26;55.53;;;29.85;;
18574;SDS011;9417;16.484;102.872;2022-12-20T12:13:56;52.67;;;29.08;;
18574;SDS011;9417;16.484;102.872;2022-12-20T12:16:05;44.58;;;27.75;;
18574;SDS011;9417;16.484;102.872;2022-12-20T12:18:19;53.53;;;27.97;;
18574;SDS011;9417;16.484;102.872;2022-12-20T12:22:38;58.65;;;29.35;;
18574;SDS011;9417;16.484;102.872;2022-12-20T12:24:47;55.33;;;30.02;;
18574;SDS011;9417;16.484;102.872;2022-12-20T12:26:57;62.15;;;29.50;;
18574;SDS011;9417;16.484;102.872;2022-12-20T12:29:05;55.28;;;28.85;;
18574;SDS011;9417;16.484;102.872;2022-12-20T12:31:17;52.88;;;29.73;;
18574;SDS011;9417;16.484;102.872;2022-12-20T12:33:34;56.50;;;30.92;;
18574;SDS011;9417;16.484;102.872;2022-12-20T12:35:48;54.30;;;30.48;;
18574;SDS011;9417;16.484;102.872;2022-12-20T12:41:18;59.08;;;33.42;;
18574;SDS011;9417;16.484;102.872;2022-12-20T12:43:46;56.40;;;31.08;;
18574;SDS011;9417;16.484;102.872;2022-12-20T12:45:56;51.97;;;31.30;;
18574;SDS011;9417;16.484;102.872;2022-12-20T12:48:05;54.90;;;29.70;;